createdAt,value
2023-05-19T00:03:23.849Z,90.09
2023-05-19T00:07:31.371Z,90.42
2023-05-19T00:11:37.109Z,91.07
2023-05-19T00:15:40.972Z,91.67
2023-05-19T00:19:45.030Z,91.53
2023-05-19T00:23:48.041Z,92.44
2023-05-19T00:27:52.632Z,92.81
2023-05-19T00:31:55.754Z,93.12
2023-05-19T00:35:58.635Z,93.06
2023-05-19T00:40:01.733Z,93.38
2023-05-19T00:44:08.031Z,93.89
2023-05-19T00:48:10.942Z,94.48
2023-05-19T00:52:14.306Z,95.20
2023-05-19T00:56:17.794Z,96.12
2023-05-19T01:00:22.626Z,96.16
2023-05-19T01:04:25.548Z,97.20
2023-05-19T01:08:29.191Z,97.70
2023-05-19T01:12:32.026Z,98.04
2023-05-19T01:16:41.184Z,98.55
2023-05-19T01:20:48.372Z,99.00
2023-05-19T01:25:20.955Z,99.11
2023-05-19T01:29:38.143Z,99.60
2023-05-19T01:33:44.637Z,99.74
2023-05-19T01:37:48.528Z,100.00
2023-05-19T01:41:52.282Z,100.00
2023-05-19T01:45:58.573Z,100.00
2023-05-19T01:50:02.896Z,99.85
2023-05-19T01:54:05.881Z,100.00
2023-05-19T01:58:16.567Z,100.00
2023-05-19T02:02:30.492Z,100.00
2023-05-19T02:06:42.732Z,100.00
2023-05-19T02:10:56.441Z,100.00
2023-05-19T02:15:04.549Z,100.00
2023-05-19T02:19:21.799Z,100.00
2023-05-19T02:23:27.648Z,100.00
2023-05-19T02:27:33.465Z,100.00
2023-05-19T02:31:36.265Z,100.00
2023-05-19T02:35:39.127Z,100.00
2023-05-19T02:39:43.779Z,100.00
2023-05-19T02:43:46.520Z,100.00
2023-05-19T02:47:49.986Z,100.00
2023-05-19T02:51:52.832Z,100.00
2023-05-19T02:55:57.022Z,100.00
2023-05-19T02:59:59.782Z,100.00
2023-05-19T03:04:02.773Z,100.00
2023-05-19T03:08:06.230Z,100.00
2023-05-19T03:12:10.776Z,100.00
2023-05-19T03:16:14.071Z,100.00
2023-05-19T03:20:17.429Z,100.00
2023-05-19T03:24:20.922Z,100.00
2023-05-19T03:28:27.246Z,100.00
2023-05-19T03:32:30.140Z,100.00
2023-05-19T03:36:33.093Z,100.00
2023-05-19T03:40:37.594Z,100.00
2023-05-19T03:44:47.230Z,100.00
2023-05-19T03:48:51.223Z,100.00
2023-05-19T03:52:53.920Z,100.00
2023-05-19T03:57:03.953Z,100.00
2023-05-19T04:01:08.480Z,100.00
2023-05-19T04:05:12.029Z,100.00
2023-05-19T04:09:16.924Z,100.00
2023-05-19T04:13:19.732Z,100.00
2023-05-19T04:17:26.337Z,100.00
2023-05-19T04:21:31.285Z,100.00
2023-05-19T04:25:35.956Z,100.00
2023-05-19T04:29:38.936Z,100.00
2023-05-19T04:33:43.445Z,100.00
2023-05-19T04:37:46.896Z,100.00
2023-05-19T04:41:51.483Z,100.00
2023-05-19T04:45:54.748Z,100.00
2023-05-19T04:50:00.786Z,100.00
2023-05-19T04:54:04.966Z,100.00
2023-05-19T04:58:09.658Z,100.00
2023-05-19T05:02:13.393Z,100.00
2023-05-19T05:06:18.255Z,100.00
2023-05-19T05:10:21.868Z,100.00
2023-05-19T05:14:25.485Z,100.00
2023-05-19T05:18:29.118Z,100.00
2023-05-19T05:22:38.666Z,100.00
2023-05-19T05:26:43.210Z,100.00
2023-05-19T05:30:46.561Z,100.00
2023-05-19T05:34:52.170Z,100.00
2023-05-19T05:38:56.626Z,100.00
2023-05-19T05:42:59.961Z,100.00
2023-05-19T05:47:07.981Z,100.00
2023-05-19T05:51:12.125Z,100.00
2023-05-19T05:55:18.352Z,100.00
2023-05-19T05:59:21.423Z,100.00
2023-05-19T06:03:24.887Z,100.00
2023-05-19T06:07:29.000Z,100.00
2023-05-19T06:11:37.887Z,100.00
2023-05-19T06:15:41.706Z,98.74
2023-05-19T06:19:54.320Z,97.53
2023-05-19T06:23:57.996Z,95.98
2023-05-19T06:28:05.980Z,93.28
2023-05-19T06:32:09.282Z,90.06
2023-05-19T06:36:12.531Z,84.81
2023-05-19T06:40:18.211Z,80.74
2023-05-19T06:44:24.175Z,78.63
2023-05-19T06:48:27.070Z,75.03
2023-05-19T06:52:30.079Z,71.98
2023-05-19T06:56:33.060Z,70.23
2023-05-19T07:00:38.295Z,68.11
2023-05-19T07:04:43.959Z,66.07
2023-05-19T07:08:51.278Z,62.59
2023-05-19T07:12:55.786Z,59.00
2023-05-19T07:17:03.466Z,58.51
2023-05-19T07:21:07.249Z,57.42
2023-05-19T07:25:11.724Z,55.20
2023-05-19T07:29:15.854Z,54.69
2023-05-19T07:33:23.490Z,54.02
2023-05-19T07:37:26.655Z,52.61
2023-05-19T07:41:29.738Z,50.65
2023-05-19T07:45:32.715Z,50.79
2023-05-19T07:49:40.568Z,49.16
2023-05-19T07:53:43.850Z,48.75
2023-05-19T07:57:48.736Z,48.04
2023-05-19T08:01:55.191Z,47.02
2023-05-19T08:06:00.128Z,45.73
2023-05-19T08:10:20.072Z,44.38
2023-05-19T08:14:23.248Z,44.15
2023-05-19T08:18:50.498Z,43.63
2023-05-19T08:23:14.891Z,42.50
2023-05-19T08:27:18.269Z,42.25
2023-05-19T08:31:22.489Z,40.76
2023-05-19T08:35:25.956Z,40.55
2023-05-19T08:39:33.157Z,40.30
2023-05-19T08:43:35.992Z,39.26
2023-05-19T08:47:39.097Z,37.95
2023-05-19T08:51:52.046Z,37.66
2023-05-19T08:56:04.085Z,35.85
2023-05-19T09:00:11.779Z,36.22
2023-05-19T09:04:20.874Z,35.76
2023-05-19T09:08:25.068Z,34.71
2023-05-19T09:12:31.520Z,35.20
2023-05-19T09:16:34.596Z,34.16
2023-05-19T09:20:41.510Z,34.57
2023-05-19T09:24:44.782Z,34.58
2023-05-19T09:28:49.825Z,33.60
2023-05-19T09:32:53.107Z,33.08
2023-05-19T09:36:58.010Z,32.55
2023-05-19T09:41:02.340Z,32.83
2023-05-19T09:45:08.166Z,33.03
2023-05-19T09:49:13.311Z,32.13
2023-05-19T09:53:18.608Z,32.34
2023-05-19T09:57:28.281Z,32.24
2023-05-19T10:01:41.215Z,31.61
2023-05-19T10:06:04.931Z,31.87
2023-05-19T10:10:20.489Z,31.85
2023-05-19T10:14:24.912Z,31.75
2023-05-19T10:18:31.758Z,31.55
2023-05-19T10:22:34.853Z,31.60
2023-05-19T10:26:38.588Z,30.93
2023-05-19T10:30:43.985Z,31.11
2023-05-19T10:35:10.976Z,30.86
2023-05-19T10:39:18.957Z,29.82
2023-05-19T10:43:32.032Z,30.22
2023-05-19T10:47:38.785Z,30.45
2023-05-19T10:51:56.912Z,30.79
2023-05-19T10:56:30.140Z,30.41
2023-05-19T11:01:01.272Z,30.68
2023-05-19T11:05:11.153Z,30.20
2023-05-19T11:09:17.086Z,31.51
2023-05-19T11:13:22.735Z,31.98
2023-05-19T11:17:27.486Z,31.79
2023-05-19T11:21:50.458Z,31.52
2023-05-19T11:25:56.989Z,31.85
2023-05-19T11:30:01.965Z,32.05
2023-05-19T11:34:07.624Z,31.79
2023-05-19T11:38:12.236Z,31.66
2023-05-19T11:42:16.884Z,31.83
2023-05-19T11:46:35.109Z,32.12
2023-05-19T11:51:01.604Z,32.43
2023-05-19T11:55:22.146Z,32.72
2023-05-19T11:59:34.931Z,31.61
2023-05-19T12:03:46.523Z,31.62
2023-05-19T12:07:52.450Z,31.18
2023-05-19T12:11:56.499Z,30.42
2023-05-19T12:16:02.374Z,29.83
2023-05-19T12:20:06.654Z,30.03
2023-05-19T12:24:11.022Z,29.65
2023-05-19T12:28:14.344Z,28.80
2023-05-19T12:32:20.274Z,29.46
2023-05-19T12:36:54.445Z,29.95
2023-05-19T12:41:20.560Z,29.60
2023-05-19T12:45:45.735Z,28.69
2023-05-19T12:50:11.168Z,28.63
2023-05-19T12:54:15.498Z,28.38
2023-05-19T12:58:21.430Z,28.08
2023-05-19T13:02:25.742Z,28.01
2023-05-19T13:06:30.409Z,27.52
2023-05-19T13:10:35.520Z,29.01
2023-05-19T13:14:40.601Z,29.39
2023-05-19T13:18:48.665Z,27.59
2023-05-19T13:22:55.423Z,28.62
2023-05-19T13:27:13.498Z,28.15
2023-05-19T13:31:26.397Z,28.29
2023-05-19T13:35:45.920Z,28.46
2023-05-19T13:40:01.491Z,29.38
2023-05-19T13:44:04.531Z,28.93
2023-05-19T13:48:08.866Z,29.13
2023-05-19T13:52:19.586Z,29.38
2023-05-19T13:56:23.728Z,29.42
2023-05-19T14:00:27.082Z,29.64
2023-05-19T14:04:38.247Z,28.73
2023-05-19T14:08:42.265Z,29.15
2023-05-19T14:13:14.045Z,29.10
2023-05-19T14:17:11.355Z,29.57
2023-05-19T14:21:21.302Z,29.57
2023-05-19T14:25:50.220Z,29.78
2023-05-19T14:30:20.638Z,29.47
2023-05-19T14:34:38.133Z,29.64
2023-05-19T14:38:50.361Z,29.48
2023-05-19T14:42:54.667Z,29.72
2023-05-19T14:46:59.892Z,30.21
2023-05-19T14:51:05.515Z,30.72
2023-05-19T14:55:12.820Z,30.17
2023-05-19T14:59:17.939Z,30.56
2023-05-19T15:03:23.222Z,29.96
2023-05-19T15:07:46.205Z,30.67
2023-05-19T15:12:03.938Z,30.59
2023-05-19T15:16:25.618Z,31.17
2023-05-19T15:20:51.414Z,30.96
2023-05-19T15:25:00.917Z,31.34
2023-05-19T15:29:03.985Z,30.88
2023-05-19T15:33:07.094Z,30.91
2023-05-19T15:37:11.406Z,31.10
2023-05-19T15:41:14.826Z,31.57
2023-05-19T15:45:22.721Z,31.55
2023-05-19T15:49:31.587Z,31.45
2023-05-19T15:53:37.351Z,31.88
2023-05-19T15:57:40.904Z,32.32
2023-05-19T16:01:58.680Z,32.04
2023-05-19T16:06:13.982Z,31.65
2023-05-19T16:10:35.175Z,32.29
2023-05-19T16:14:47.700Z,31.87
2023-05-19T16:18:50.923Z,31.92
2023-05-19T16:22:55.430Z,32.21
2023-05-19T16:26:59.787Z,32.61
2023-05-19T16:31:02.678Z,32.91
2023-05-19T16:35:06.407Z,32.72
2023-05-19T16:39:15.614Z,32.45
2023-05-19T16:43:20.987Z,32.22
2023-05-19T16:47:24.161Z,32.26
2023-05-19T16:51:28.793Z,32.66
2023-05-19T16:55:35.998Z,32.36
2023-05-19T16:59:58.741Z,32.61
2023-05-19T17:04:21.161Z,32.83
2023-05-19T17:08:33.274Z,32.70
2023-05-19T17:12:36.916Z,32.71
2023-05-19T17:16:41.886Z,32.50
2023-05-19T17:20:45.390Z,32.17
2023-05-19T17:24:49.184Z,32.91
2023-05-19T17:28:52.757Z,32.99
2023-05-19T17:32:59.480Z,32.63
2023-05-19T17:37:03.301Z,32.62
2023-05-19T17:41:09.782Z,32.90
2023-05-19T17:45:13.143Z,33.14
2023-05-19T17:49:17.517Z,33.45
2023-05-19T17:53:21.562Z,33.87
2023-05-19T17:57:32.132Z,34.40
2023-05-19T18:01:36.821Z,34.42
2023-05-19T18:05:43.304Z,34.66
2023-05-19T18:09:47.208Z,35.06
2023-05-19T18:13:50.088Z,35.52
2023-05-19T18:17:53.089Z,35.87
2023-05-19T18:21:57.469Z,36.20
2023-05-19T18:26:01.497Z,36.41
2023-05-19T18:30:06.747Z,36.73
2023-05-19T18:34:10.693Z,37.01
2023-05-19T18:38:37.445Z,37.27
2023-05-19T18:42:40.924Z,37.71
2023-05-19T18:46:44.137Z,38.00
2023-05-19T18:50:49.768Z,38.28
2023-05-19T18:54:54.369Z,38.57
2023-05-19T18:58:58.330Z,38.91
2023-05-19T19:03:02.949Z,39.33
2023-05-19T19:07:08.053Z,39.57
2023-05-19T19:11:13.114Z,39.97
2023-05-19T19:15:16.468Z,40.01
2023-05-19T19:19:20.416Z,40.24
2023-05-19T19:23:24.133Z,40.59
2023-05-19T19:27:38.214Z,40.96
2023-05-19T19:31:50.743Z,41.10
2023-05-19T19:36:01.913Z,41.42
2023-05-19T19:40:20.169Z,41.71
2023-05-19T19:44:42.794Z,42.09
2023-05-19T19:49:00.957Z,42.50
2023-05-19T19:53:06.518Z,42.61
2023-05-19T19:57:17.003Z,42.98
2023-05-19T20:01:23.577Z,43.21
2023-05-19T20:05:27.359Z,43.65
2023-05-19T20:09:33.928Z,44.02
2023-05-19T20:13:38.940Z,44.24
2023-05-19T20:17:52.373Z,44.50
2023-05-19T20:22:12.306Z,44.61
2023-05-19T20:26:20.605Z,44.93
2023-05-19T20:30:24.209Z,45.25
2023-05-19T20:34:44.662Z,45.76
2023-05-19T20:38:58.683Z,45.97
2023-05-19T20:43:01.971Z,46.32
2023-05-19T20:47:09.575Z,47.06
2023-05-19T20:51:16.756Z,47.38
2023-05-19T20:55:19.937Z,47.68
2023-05-19T20:59:23.826Z,48.14
2023-05-19T21:03:27.185Z,48.57
2023-05-19T21:07:37.505Z,49.48
2023-05-19T21:11:41.555Z,50.55
2023-05-19T21:15:45.176Z,51.45
2023-05-19T21:19:50.598Z,53.34
2023-05-19T21:23:55.312Z,54.38
2023-05-19T21:27:59.104Z,55.37
2023-05-19T21:32:02.211Z,55.93
2023-05-19T21:36:05.926Z,56.50
2023-05-19T21:40:12.378Z,58.02
2023-05-19T21:44:15.147Z,59.02
2023-05-19T21:48:18.185Z,58.94
2023-05-19T21:52:21.897Z,60.44
2023-05-19T21:56:27.778Z,60.98
2023-05-19T22:00:31.496Z,61.30
2023-05-19T22:04:43.183Z,62.08
2023-05-19T22:08:46.008Z,62.90
2023-05-19T22:12:51.116Z,63.67
2023-05-19T22:16:54.514Z,64.76
2023-05-19T22:20:57.864Z,65.21
2023-05-19T22:25:01.760Z,65.95
2023-05-19T22:29:06.611Z,66.37
2023-05-19T22:33:11.975Z,66.69
2023-05-19T22:37:16.468Z,67.39
2023-05-19T22:41:19.994Z,67.72
2023-05-19T22:45:24.371Z,68.13
2023-05-19T22:49:29.587Z,68.67
2023-05-19T22:53:33.010Z,69.43
2023-05-19T22:57:36.718Z,70.04
2023-05-19T23:01:41.948Z,70.48
2023-05-19T23:05:46.545Z,70.46
2023-05-19T23:09:49.702Z,70.51
2023-05-19T23:13:52.739Z,70.60
2023-05-19T23:18:01.273Z,70.88
2023-05-19T23:22:04.652Z,71.08
2023-05-19T23:26:09.919Z,72.14
2023-05-19T23:30:13.712Z,72.46
2023-05-19T23:34:18.749Z,72.75
2023-05-19T23:38:21.971Z,73.20
2023-05-19T23:42:25.982Z,73.56
2023-05-19T23:46:30.052Z,74.21
2023-05-19T23:50:34.643Z,73.93
2023-05-19T23:54:38.622Z,75.05
2023-05-19T23:58:47.638Z,74.73
